sensor_id;sensor_type;location;lat;lon;timestamp;pressure;altitude;pressure_sealevel;temperature;humidity
54924;BME280;40825;52.270;20.984;2023-08-17T00:02:13;100874.90;;;26.49;60.39
54924;BME280;40825;52.270;20.984;2023-08-17T00:04:39;100880.66;;;26.47;60.33
54924;BME280;40825;52.270;20.984;2023-08-17T00:07:05;100877.34;;;26.46;60.37
54924;BME280;40825;52.270;20.984;2023-08-17T00:09:31;100877.91;;;26.45;60.60
54924;BME280;40825;52.270;20.984;2023-08-17T00:11:57;100879.33;;;26.43;60.86
54924;BME280;40825;52.270;20.984;2023-08-17T00:14:23;100876.56;;;26.40;60.97
54924;BME280;40825;52.270;20.984;2023-08-17T00:16:49;100878.08;;;26.37;60.83
54924;BME280;40825;52.270;20.984;2023-08-17T00:19:15;100878.85;;;26.33;61.33
54924;BME280;40825;52.270;20.984;2023-08-17T00:21:41;100880.70;;;26.29;61.69
54924;BME280;40825;52.270;20.984;2023-08-17T00:24:07;100883.45;;;26.25;61.68
54924;BME280;40825;52.270;20.984;2023-08-17T00:26:33;100883.80;;;26.23;61.65
54924;BME280;40825;52.270;20.984;2023-08-17T00:28:58;100886.16;;;26.22;61.95
54924;BME280;40825;52.270;20.984;2023-08-17T00:31:24;100888.42;;;26.21;62.14
54924;BME280;40825;52.270;20.984;2023-08-17T00:33:49;100888.67;;;26.19;62.08
54924;BME280;40825;52.270;20.984;2023-08-17T00:36:15;100889.22;;;26.19;62.26
54924;BME280;40825;52.270;20.984;2023-08-17T00:38:40;100886.94;;;26.18;62.36
54924;BME280;40825;52.270;20.984;2023-08-17T00:41:06;100883.72;;;26.17;62.78
54924;BME280;40825;52.270;20.984;2023-08-17T00:43:32;100883.09;;;26.13;63.47
54924;BME280;40825;52.270;20.984;2023-08-17T00:45:57;100884.38;;;26.08;63.26
54924;BME280;40825;52.270;20.984;2023-08-17T00:48:24;100889.42;;;26.06;63.52
54924;BME280;40825;52.270;20.984;2023-08-17T00:50:50;100888.29;;;26.04;63.74
54924;BME280;40825;52.270;20.984;2023-08-17T00:53:18;100888.40;;;26.03;63.62
54924;BME280;40825;52.270;20.984;2023-08-17T00:55:44;100890.37;;;26.03;63.84
54924;BME280;40825;52.270;20.984;2023-08-17T00:58:10;100897.05;;;26.03;64.12
54924;BME280;40825;52.270;20.984;2023-08-17T01:00:35;100896.59;;;25.99;64.53
54924;BME280;40825;52.270;20.984;2023-08-17T01:03:01;100892.02;;;25.94;64.17
54924;BME280;40825;52.270;20.984;2023-08-17T01:05:27;100894.98;;;25.94;64.15
54924;BME280;40825;52.270;20.984;2023-08-17T01:07:52;100892.67;;;25.96;64.38
54924;BME280;40825;52.270;20.984;2023-08-17T01:10:18;100896.83;;;25.95;64.54
54924;BME280;40825;52.270;20.984;2023-08-17T01:13:04;100899.63;;;25.92;64.67
54924;BME280;40825;52.270;20.984;2023-08-17T01:15:37;100898.55;;;25.90;64.68
54924;BME280;40825;52.270;20.984;2023-08-17T01:20:32;100897.39;;;25.92;64.96
54924;BME280;40825;52.270;20.984;2023-08-17T01:23:05;100896.37;;;25.90;65.17
54924;BME280;40825;52.270;20.984;2023-08-17T01:25:31;100892.15;;;25.90;65.18
54924;BME280;40825;52.270;20.984;2023-08-17T01:28:03;100887.56;;;25.91;65.47
54924;BME280;40825;52.270;20.984;2023-08-17T01:30:30;100885.92;;;25.91;65.71
54924;BME280;40825;52.270;20.984;2023-08-17T01:33:08;100887.73;;;25.89;65.81
54924;BME280;40825;52.270;20.984;2023-08-17T01:38:12;100885.92;;;25.80;66.02
54924;BME280;40825;52.270;20.984;2023-08-17T01:40:41;100885.02;;;25.75;66.32
54924;BME280;40825;52.270;20.984;2023-08-17T01:43:09;100874.44;;;25.72;66.58
54924;BME280;40825;52.270;20.984;2023-08-17T01:45:35;100877.57;;;25.68;66.54
54924;BME280;40825;52.270;20.984;2023-08-17T01:48:00;100887.33;;;25.65;67.08
54924;BME280;40825;52.270;20.984;2023-08-17T01:50:26;100889.60;;;25.56;68.22
54924;BME280;40825;52.270;20.984;2023-08-17T01:52:52;100886.66;;;25.49;67.35
54924;BME280;40825;52.270;20.984;2023-08-17T01:55:21;100886.59;;;25.47;67.47
54924;BME280;40825;52.270;20.984;2023-08-17T01:57:46;100890.44;;;25.47;67.51
54924;BME280;40825;52.270;20.984;2023-08-17T02:00:12;100890.15;;;25.48;67.72
54924;BME280;40825;52.270;20.984;2023-08-17T02:02:38;100884.96;;;25.46;67.86
54924;BME280;40825;52.270;20.984;2023-08-17T02:05:04;100885.67;;;25.45;68.01
54924;BME280;40825;52.270;20.984;2023-08-17T02:07:30;100887.66;;;25.44;67.91
54924;BME280;40825;52.270;20.984;2023-08-17T02:09:55;100887.23;;;25.41;68.07
54924;BME280;40825;52.270;20.984;2023-08-17T02:12:21;100886.39;;;25.41;68.32
54924;BME280;40825;52.270;20.984;2023-08-17T02:14:46;100882.69;;;25.42;68.43
54924;BME280;40825;52.270;20.984;2023-08-17T02:17:12;100878.77;;;25.38;68.53
54924;BME280;40825;52.270;20.984;2023-08-17T02:19:38;100875.34;;;25.35;68.55
54924;BME280;40825;52.270;20.984;2023-08-17T02:22:04;100875.63;;;25.33;68.71
54924;BME280;40825;52.270;20.984;2023-08-17T02:24:30;100878.15;;;25.30;68.75
54924;BME280;40825;52.270;20.984;2023-08-17T02:26:55;100878.30;;;25.29;69.05
54924;BME280;40825;52.270;20.984;2023-08-17T02:29:21;100880.13;;;25.25;69.12
54924;BME280;40825;52.270;20.984;2023-08-17T02:31:46;100884.73;;;25.21;69.20
54924;BME280;40825;52.270;20.984;2023-08-17T02:34:12;100879.06;;;25.18;69.44
54924;BME280;40825;52.270;20.984;2023-08-17T02:36:37;100879.01;;;25.17;69.59
54924;BME280;40825;52.270;20.984;2023-08-17T02:39:03;100880.23;;;25.14;69.81
54924;BME280;40825;52.270;20.984;2023-08-17T02:41:29;100877.05;;;25.10;69.83
54924;BME280;40825;52.270;20.984;2023-08-17T02:43:56;100881.77;;;25.05;69.61
54924;BME280;40825;52.270;20.984;2023-08-17T02:46:21;100881.89;;;25.00;69.64
54924;BME280;40825;52.270;20.984;2023-08-17T02:48:47;100882.13;;;24.98;69.59
54924;BME280;40825;52.270;20.984;2023-08-17T02:51:13;100885.23;;;24.95;69.46
54924;BME280;40825;52.270;20.984;2023-08-17T02:53:40;100882.30;;;24.90;69.70
54924;BME280;40825;52.270;20.984;2023-08-17T02:56:05;100884.48;;;24.87;69.80
54924;BME280;40825;52.270;20.984;2023-08-17T02:58:31;100888.59;;;24.85;69.71
54924;BME280;40825;52.270;20.984;2023-08-17T03:00:56;100889.63;;;24.82;69.90
54924;BME280;40825;52.270;20.984;2023-08-17T03:03:22;100891.64;;;24.78;69.76
54924;BME280;40825;52.270;20.984;2023-08-17T03:05:48;100895.56;;;24.72;69.98
54924;BME280;40825;52.270;20.984;2023-08-17T03:08:13;100896.66;;;24.67;69.86
54924;BME280;40825;52.270;20.984;2023-08-17T03:10:39;100898.52;;;24.65;70.15
54924;BME280;40825;52.270;20.984;2023-08-17T03:13:04;100903.49;;;24.60;70.42
54924;BME280;40825;52.270;20.984;2023-08-17T03:15:30;100904.42;;;24.58;70.19
54924;BME280;40825;52.270;20.984;2023-08-17T03:17:55;100910.92;;;24.56;70.09
54924;BME280;40825;52.270;20.984;2023-08-17T03:20:21;100909.82;;;24.54;70.40
54924;BME280;40825;52.270;20.984;2023-08-17T03:22:47;100911.09;;;24.50;70.99
54924;BME280;40825;52.270;20.984;2023-08-17T03:25:12;100910.76;;;24.48;70.68
54924;BME280;40825;52.270;20.984;2023-08-17T03:27:38;100917.30;;;24.47;70.75
54924;BME280;40825;52.270;20.984;2023-08-17T03:30:05;100923.03;;;24.47;70.75
54924;BME280;40825;52.270;20.984;2023-08-17T03:32:31;100922.38;;;24.44;70.85
54924;BME280;40825;52.270;20.984;2023-08-17T03:34:56;100922.92;;;24.41;70.57
54924;BME280;40825;52.270;20.984;2023-08-17T03:37:22;100921.50;;;24.39;70.43
54924;BME280;40825;52.270;20.984;2023-08-17T03:39:47;100926.09;;;24.40;71.05
54924;BME280;40825;52.270;20.984;2023-08-17T03:42:13;100933.61;;;24.37;71.45
54924;BME280;40825;52.270;20.984;2023-08-17T03:44:38;100938.04;;;24.33;71.53
54924;BME280;40825;52.270;20.984;2023-08-17T03:47:04;100936.11;;;24.31;72.18
54924;BME280;40825;52.270;20.984;2023-08-17T03:49:29;100939.98;;;24.29;71.74
54924;BME280;40825;52.270;20.984;2023-08-17T03:51:55;100937.69;;;24.26;71.57
54924;BME280;40825;52.270;20.984;2023-08-17T03:54:21;100933.48;;;24.26;71.57
54924;BME280;40825;52.270;20.984;2023-08-17T03:56:46;100926.84;;;24.27;71.31
54924;BME280;40825;52.270;20.984;2023-08-17T03:59:14;100918.65;;;24.28;71.17
54924;BME280;40825;52.270;20.984;2023-08-17T04:01:39;100924.45;;;24.31;71.37
54924;BME280;40825;52.270;20.984;2023-08-17T04:04:05;100923.20;;;24.33;71.83
54924;BME280;40825;52.270;20.984;2023-08-17T04:06:30;100923.03;;;24.32;71.81
54924;BME280;40825;52.270;20.984;2023-08-17T04:08:56;100928.27;;;24.32;71.94
54924;BME280;40825;52.270;20.984;2023-08-17T04:11:22;100930.55;;;24.31;72.05
54924;BME280;40825;52.270;20.984;2023-08-17T04:13:47;100936.11;;;24.32;72.22
54924;BME280;40825;52.270;20.984;2023-08-17T04:16:13;100932.30;;;24.32;71.88
54924;BME280;40825;52.270;20.984;2023-08-17T04:18:38;100928.59;;;24.33;72.28
54924;BME280;40825;52.270;20.984;2023-08-17T04:21:04;100933.29;;;24.34;71.96
54924;BME280;40825;52.270;20.984;2023-08-17T04:23:29;100933.27;;;24.36;72.09
54924;BME280;40825;52.270;20.984;2023-08-17T04:25:55;100937.65;;;24.39;72.31
54924;BME280;40825;52.270;20.984;2023-08-17T04:28:20;100937.94;;;24.41;71.85
54924;BME280;40825;52.270;20.984;2023-08-17T04:30:46;100936.34;;;24.43;71.86
54924;BME280;40825;52.270;20.984;2023-08-17T04:33:12;100938.09;;;24.43;71.67
54924;BME280;40825;52.270;20.984;2023-08-17T04:35:38;100936.90;;;24.45;71.47
54924;BME280;40825;52.270;20.984;2023-08-17T04:38:04;100933.89;;;24.47;71.14
54924;BME280;40825;52.270;20.984;2023-08-17T04:40:30;100929.73;;;24.51;70.80
54924;BME280;40825;52.270;20.984;2023-08-17T04:42:57;100931.21;;;24.57;70.65
54924;BME280;40825;52.270;20.984;2023-08-17T04:45:23;100933.89;;;24.62;70.26
54924;BME280;40825;52.270;20.984;2023-08-17T04:47:48;100936.35;;;24.70;69.97
54924;BME280;40825;52.270;20.984;2023-08-17T04:50:15;100933.36;;;24.78;69.75
54924;BME280;40825;52.270;20.984;2023-08-17T04:52:45;100931.19;;;24.85;69.40
54924;BME280;40825;52.270;20.984;2023-08-17T04:55:12;100933.52;;;24.92;68.81
54924;BME280;40825;52.270;20.984;2023-08-17T04:57:38;100934.23;;;24.98;68.37
54924;BME280;40825;52.270;20.984;2023-08-17T05:00:05;100937.73;;;25.03;68.35
54924;BME280;40825;52.270;20.984;2023-08-17T05:02:35;100943.88;;;25.09;68.18
54924;BME280;40825;52.270;20.984;2023-08-17T05:05:05;100940.70;;;25.16;68.19
54924;BME280;40825;52.270;20.984;2023-08-17T05:07:32;100941.74;;;25.18;67.44
54924;BME280;40825;52.270;20.984;2023-08-17T05:09:58;100942.48;;;25.21;67.46
54924;BME280;40825;52.270;20.984;2023-08-17T05:12:23;100946.20;;;25.28;67.45
54924;BME280;40825;52.270;20.984;2023-08-17T05:14:49;100940.42;;;25.36;66.86
54924;BME280;40825;52.270;20.984;2023-08-17T05:17:14;100935.16;;;25.42;66.33
54924;BME280;40825;52.270;20.984;2023-08-17T05:19:40;100936.24;;;25.47;65.01
54924;BME280;40825;52.270;20.984;2023-08-17T05:22:11;100936.24;;;25.53;64.55
54924;BME280;40825;52.270;20.984;2023-08-17T05:24:38;100939.29;;;25.60;64.85
54924;BME280;40825;52.270;20.984;2023-08-17T05:27:04;100939.59;;;25.66;64.94
54924;BME280;40825;52.270;20.984;2023-08-17T05:29:29;100939.18;;;25.70;64.39
54924;BME280;40825;52.270;20.984;2023-08-17T05:31:57;100938.08;;;25.75;64.50
54924;BME280;40825;52.270;20.984;2023-08-17T05:34:23;100940.63;;;25.78;63.97
54924;BME280;40825;52.270;20.984;2023-08-17T05:36:49;100940.19;;;25.79;63.39
54924;BME280;40825;52.270;20.984;2023-08-17T05:39:14;100935.98;;;25.81;63.46
54924;BME280;40825;52.270;20.984;2023-08-17T05:41:40;100938.65;;;25.80;62.68
54924;BME280;40825;52.270;20.984;2023-08-17T05:44:05;100939.59;;;25.79;62.86
54924;BME280;40825;52.270;20.984;2023-08-17T05:46:35;100937.77;;;25.80;62.78
54924;BME280;40825;52.270;20.984;2023-08-17T05:49:02;100937.16;;;25.83;62.64
54924;BME280;40825;52.270;20.984;2023-08-17T05:51:28;100933.64;;;25.85;62.69
54924;BME280;40825;52.270;20.984;2023-08-17T05:53:54;100928.65;;;25.86;62.31
54924;BME280;40825;52.270;20.984;2023-08-17T05:56:19;100925.31;;;25.87;61.97
54924;BME280;40825;52.270;20.984;2023-08-17T05:58:45;100919.73;;;25.88;61.74
54924;BME280;40825;52.270;20.984;2023-08-17T06:01:11;100922.30;;;25.90;61.68
54924;BME280;40825;52.270;20.984;2023-08-17T06:03:37;100923.23;;;25.92;60.92
54924;BME280;40825;52.270;20.984;2023-08-17T06:06:04;100922.38;;;25.94;61.09
54924;BME280;40825;52.270;20.984;2023-08-17T06:08:31;100921.98;;;25.97;60.83
54924;BME280;40825;52.270;20.984;2023-08-17T06:10:57;100917.32;;;25.99;59.89
54924;BME280;40825;52.270;20.984;2023-08-17T06:13:22;100921.18;;;26.03;59.37
54924;BME280;40825;52.270;20.984;2023-08-17T06:15:48;100920.39;;;26.06;59.28
54924;BME280;40825;52.270;20.984;2023-08-17T06:18:14;100920.19;;;26.13;59.19
54924;BME280;40825;52.270;20.984;2023-08-17T06:20:40;100919.08;;;26.19;59.04
54924;BME280;40825;52.270;20.984;2023-08-17T06:23:05;100916.97;;;26.23;58.86
54924;BME280;40825;52.270;20.984;2023-08-17T06:25:31;100921.36;;;26.30;58.84
54924;BME280;40825;52.270;20.984;2023-08-17T06:27:56;100919.56;;;26.37;58.36
54924;BME280;40825;52.270;20.984;2023-08-17T06:30:22;100920.96;;;26.45;58.52
54924;BME280;40825;52.270;20.984;2023-08-17T06:32:48;100924.37;;;26.52;58.31
54924;BME280;40825;52.270;20.984;2023-08-17T06:35:15;100923.80;;;26.56;58.11
54924;BME280;40825;52.270;20.984;2023-08-17T06:37:41;100925.79;;;26.60;58.30
54924;BME280;40825;52.270;20.984;2023-08-17T06:40:07;100927.27;;;26.65;57.83
54924;BME280;40825;52.270;20.984;2023-08-17T06:42:34;100931.78;;;26.76;57.89
54924;BME280;40825;52.270;20.984;2023-08-17T06:45:00;100934.31;;;26.88;57.01
54924;BME280;40825;52.270;20.984;2023-08-17T06:47:26;100933.67;;;26.99;56.93
54924;BME280;40825;52.270;20.984;2023-08-17T06:49:51;100938.65;;;27.06;56.70
54924;BME280;40825;52.270;20.984;2023-08-17T06:52:17;100940.81;;;27.14;56.46
54924;BME280;40825;52.270;20.984;2023-08-17T06:54:45;100947.54;;;27.21;55.92
54924;BME280;40825;52.270;20.984;2023-08-17T06:57:11;100947.23;;;27.28;56.02
54924;BME280;40825;52.270;20.984;2023-08-17T06:59:36;100945.42;;;27.32;54.66
54924;BME280;40825;52.270;20.984;2023-08-17T07:02:02;100947.72;;;27.39;54.32
54924;BME280;40825;52.270;20.984;2023-08-17T07:04:28;100947.69;;;27.47;54.50
54924;BME280;40825;52.270;20.984;2023-08-17T07:06:53;100950.07;;;27.54;54.58
54924;BME280;40825;52.270;20.984;2023-08-17T07:09:19;100949.79;;;27.66;54.93
54924;BME280;40825;52.270;20.984;2023-08-17T07:11:46;100953.36;;;27.75;54.23
54924;BME280;40825;52.270;20.984;2023-08-17T07:14:14;100953.58;;;27.75;53.88
54924;BME280;40825;52.270;20.984;2023-08-17T07:16:39;100953.02;;;27.76;53.81
54924;BME280;40825;52.270;20.984;2023-08-17T07:19:05;100952.86;;;27.80;53.42
54924;BME280;40825;52.270;20.984;2023-08-17T07:21:34;100950.06;;;27.84;53.69
54924;BME280;40825;52.270;20.984;2023-08-17T07:24:11;100951.80;;;27.93;53.38
54924;BME280;40825;52.270;20.984;2023-08-17T07:26:37;100954.41;;;28.02;53.46
54924;BME280;40825;52.270;20.984;2023-08-17T07:29:02;100958.61;;;28.12;53.23
54924;BME280;40825;52.270;20.984;2023-08-17T07:31:31;100959.77;;;28.15;53.33
54924;BME280;40825;52.270;20.984;2023-08-17T07:34:01;100961.65;;;28.20;53.19
54924;BME280;40825;52.270;20.984;2023-08-17T07:36:26;100955.73;;;28.19;53.28
54924;BME280;40825;52.270;20.984;2023-08-17T07:38:52;100953.98;;;28.19;53.36
54924;BME280;40825;52.270;20.984;2023-08-17T07:41:17;100955.80;;;28.13;53.08
54924;BME280;40825;52.270;20.984;2023-08-17T07:43:43;100957.14;;;28.03;53.13
54924;BME280;40825;52.270;20.984;2023-08-17T07:46:08;100953.02;;;27.92;53.15
54924;BME280;40825;52.270;20.984;2023-08-17T07:48:34;100948.34;;;27.85;53.53
54924;BME280;40825;52.270;20.984;2023-08-17T07:50:59;100953.58;;;27.84;53.69
54924;BME280;40825;52.270;20.984;2023-08-17T07:53:25;100959.23;;;27.79;53.68
54924;BME280;40825;52.270;20.984;2023-08-17T07:55:54;100960.25;;;27.80;53.47
54924;BME280;40825;52.270;20.984;2023-08-17T07:58:19;100959.42;;;27.76;53.14
54924;BME280;40825;52.270;20.984;2023-08-17T08:00:45;100953.80;;;27.75;53.25
54924;BME280;40825;52.270;20.984;2023-08-17T08:03:11;100956.96;;;27.79;53.28
54924;BME280;40825;52.270;20.984;2023-08-17T08:05:36;100959.06;;;27.86;53.66
54924;BME280;40825;52.270;20.984;2023-08-17T08:08:02;100955.34;;;27.92;53.53
54924;BME280;40825;52.270;20.984;2023-08-17T08:10:28;100954.77;;;27.99;53.30
54924;BME280;40825;52.270;20.984;2023-08-17T08:12:54;100958.85;;;28.11;52.72
54924;BME280;40825;52.270;20.984;2023-08-17T08:15:20;100964.36;;;28.22;53.17
54924;BME280;40825;52.270;20.984;2023-08-17T08:17:45;100958.11;;;28.26;53.52
54924;BME280;40825;52.270;20.984;2023-08-17T08:20:11;100959.96;;;28.23;54.13
54924;BME280;40825;52.270;20.984;2023-08-17T08:22:36;100957.40;;;28.26;54.46
54924;BME280;40825;52.270;20.984;2023-08-17T08:25:02;100954.94;;;28.36;54.29
54924;BME280;40825;52.270;20.984;2023-08-17T08:27:28;100954.92;;;28.47;54.42
54924;BME280;40825;52.270;20.984;2023-08-17T08:29:54;100954.91;;;28.65;54.26
54924;BME280;40825;52.270;20.984;2023-08-17T08:32:19;100954.83;;;28.77;54.10
54924;BME280;40825;52.270;20.984;2023-08-17T08:34:45;100960.23;;;28.89;54.23
54924;BME280;40825;52.270;20.984;2023-08-17T08:37:10;100960.98;;;29.03;54.12
54924;BME280;40825;52.270;20.984;2023-08-17T08:42:22;100963.34;;;29.31;53.91
54924;BME280;40825;52.270;20.984;2023-08-17T08:44:49;100962.94;;;29.54;53.86
54924;BME280;40825;52.270;20.984;2023-08-17T08:47:17;100962.96;;;29.72;53.46
54924;BME280;40825;52.270;20.984;2023-08-17T08:50:03;100963.30;;;29.85;52.12
54924;BME280;40825;52.270;20.984;2023-08-17T08:52:42;100957.95;;;29.91;51.33
54924;BME280;40825;52.270;20.984;2023-08-17T08:57:34;100951.88;;;30.19;51.09
54924;BME280;40825;52.270;20.984;2023-08-17T08:59:59;100953.63;;;30.38;50.11
54924;BME280;40825;52.270;20.984;2023-08-17T09:02:25;100954.58;;;30.52;50.34
54924;BME280;40825;52.270;20.984;2023-08-17T09:04:51;100956.86;;;30.62;50.40
54924;BME280;40825;52.270;20.984;2023-08-17T09:07:17;100957.68;;;30.77;48.95
54924;BME280;40825;52.270;20.984;2023-08-17T09:09:45;100964.73;;;31.02;48.79
54924;BME280;40825;52.270;20.984;2023-08-17T09:12:10;100962.36;;;31.39;48.45
54924;BME280;40825;52.270;20.984;2023-08-17T09:14:36;100962.77;;;31.71;47.46
54924;BME280;40825;52.270;20.984;2023-08-17T09:17:05;100962.77;;;31.93;47.40
54924;BME280;40825;52.270;20.984;2023-08-17T09:19:32;100963.65;;;32.07;46.14
54924;BME280;40825;52.270;20.984;2023-08-17T09:21:58;100966.77;;;32.15;46.19
54924;BME280;40825;52.270;20.984;2023-08-17T09:24:33;100962.41;;;32.22;44.75
54924;BME280;40825;52.270;20.984;2023-08-17T09:26:58;100962.13;;;32.32;44.64
54924;BME280;40825;52.270;20.984;2023-08-17T09:29:25;100961.86;;;32.50;45.26
54924;BME280;40825;52.270;20.984;2023-08-17T09:31:51;100963.77;;;32.63;44.64
54924;BME280;40825;52.270;20.984;2023-08-17T09:34:16;100963.48;;;32.88;45.21
54924;BME280;40825;52.270;20.984;2023-08-17T09:36:46;100963.35;;;33.11;44.06
54924;BME280;40825;52.270;20.984;2023-08-17T09:39:12;100963.30;;;33.20;42.93
54924;BME280;40825;52.270;20.984;2023-08-17T09:41:38;100961.08;;;33.26;42.71
54924;BME280;40825;52.270;20.984;2023-08-17T09:44:06;100962.77;;;33.26;41.87
54924;BME280;40825;52.270;20.984;2023-08-17T09:46:32;100961.81;;;33.34;41.99
54924;BME280;40825;52.270;20.984;2023-08-17T09:48:57;100963.86;;;33.42;41.51
54924;BME280;40825;52.270;20.984;2023-08-17T09:51:24;100961.77;;;33.35;41.49
54924;BME280;40825;52.270;20.984;2023-08-17T09:53:52;100956.92;;;33.46;41.39
54924;BME280;40825;52.270;20.984;2023-08-17T09:56:24;100956.79;;;33.50;41.03
54924;BME280;40825;52.270;20.984;2023-08-17T09:58:50;100954.52;;;33.63;41.26
54924;BME280;40825;52.270;20.984;2023-08-17T10:01:17;100955.45;;;33.79;40.93
54924;BME280;40825;52.270;20.984;2023-08-17T10:03:44;100959.48;;;33.85;39.43
54924;BME280;40825;52.270;20.984;2023-08-17T10:06:17;100955.67;;;33.89;39.24
54924;BME280;40825;52.270;20.984;2023-08-17T10:08:46;100953.99;;;33.95;39.47
54924;BME280;40825;52.270;20.984;2023-08-17T10:11:16;100952.78;;;33.97;39.83
54924;BME280;40825;52.270;20.984;2023-08-17T10:13:51;100951.16;;;34.06;38.94
54924;BME280;40825;52.270;20.984;2023-08-17T10:24:00;100951.73;;;34.50;37.64
54924;BME280;40825;52.270;20.984;2023-08-17T10:26:28;100945.66;;;34.69;37.61
54924;BME280;40825;52.270;20.984;2023-08-17T10:28:55;100945.27;;;34.83;37.66
54924;BME280;40825;52.270;20.984;2023-08-17T10:31:25;100946.14;;;34.86;37.94
54924;BME280;40825;52.270;20.984;2023-08-17T10:33:51;100942.71;;;34.97;37.92
54924;BME280;40825;52.270;20.984;2023-08-17T10:36:17;100940.00;;;35.04;37.89
54924;BME280;40825;52.270;20.984;2023-08-17T10:38:43;100937.10;;;35.15;37.48
54924;BME280;40825;52.270;20.984;2023-08-17T10:41:13;100937.20;;;35.12;37.50
54924;BME280;40825;52.270;20.984;2023-08-17T10:46:19;100941.17;;;34.91;36.33
54924;BME280;40825;52.270;20.984;2023-08-17T10:48:45;100938.85;;;34.86;35.98
54924;BME280;40825;52.270;20.984;2023-08-17T10:51:11;100936.19;;;34.73;35.29
54924;BME280;40825;52.270;20.984;2023-08-17T10:53:45;100937.17;;;34.57;34.69
54924;BME280;40825;52.270;20.984;2023-08-17T10:56:13;100935.39;;;34.39;33.45
54924;BME280;40825;52.270;20.984;2023-08-17T10:58:39;100935.33;;;34.25;33.31
54924;BME280;40825;52.270;20.984;2023-08-17T11:01:07;100936.56;;;34.14;33.04
54924;BME280;40825;52.270;20.984;2023-08-17T11:03:32;100937.66;;;34.09;34.02
54924;BME280;40825;52.270;20.984;2023-08-17T11:06:14;100932.85;;;34.05;32.68
54924;BME280;40825;52.270;20.984;2023-08-17T11:08:51;100930.15;;;33.99;31.56
54924;BME280;40825;52.270;20.984;2023-08-17T11:11:19;100925.76;;;33.94;32.30
54924;BME280;40825;52.270;20.984;2023-08-17T11:13:46;100922.05;;;33.94;32.81
54924;BME280;40825;52.270;20.984;2023-08-17T11:16:12;100923.88;;;33.92;32.38
54924;BME280;40825;52.270;20.984;2023-08-17T11:18:39;100917.83;;;33.91;32.91
54924;BME280;40825;52.270;20.984;2023-08-17T11:21:07;100915.58;;;33.88;33.31
54924;BME280;40825;52.270;20.984;2023-08-17T11:23:35;100913.97;;;33.81;33.43
54924;BME280;40825;52.270;20.984;2023-08-17T11:26:01;100910.35;;;33.73;33.67
54924;BME280;40825;52.270;20.984;2023-08-17T11:28:29;100910.64;;;33.68;33.94
54924;BME280;40825;52.270;20.984;2023-08-17T11:31:03;100908.07;;;33.67;34.29
54924;BME280;40825;52.270;20.984;2023-08-17T11:33:30;100908.77;;;33.65;33.78
54924;BME280;40825;52.270;20.984;2023-08-17T11:36:01;100909.11;;;33.63;33.58
54924;BME280;40825;52.270;20.984;2023-08-17T11:38:31;100910.42;;;33.62;32.83
54924;BME280;40825;52.270;20.984;2023-08-17T11:40:58;100911.59;;;33.62;32.60
54924;BME280;40825;52.270;20.984;2023-08-17T11:43:25;100911.50;;;33.61;32.54
54924;BME280;40825;52.270;20.984;2023-08-17T11:45:52;100906.64;;;33.63;32.66
54924;BME280;40825;52.270;20.984;2023-08-17T11:48:20;100905.06;;;33.61;32.56
54924;BME280;40825;52.270;20.984;2023-08-17T11:50:46;100901.93;;;33.57;32.21
54924;BME280;40825;52.270;20.984;2023-08-17T11:53:13;100898.15;;;33.63;32.96
54924;BME280;40825;52.270;20.984;2023-08-17T11:55:38;100903.06;;;33.76;32.39
54924;BME280;40825;52.270;20.984;2023-08-17T11:58:04;100906.52;;;33.91;32.08
54924;BME280;40825;52.270;20.984;2023-08-17T12:00:41;100904.70;;;34.01;31.67
54924;BME280;40825;52.270;20.984;2023-08-17T12:03:13;100901.95;;;34.09;31.88
54924;BME280;40825;52.270;20.984;2023-08-17T12:05:38;100899.20;;;34.22;31.43
54924;BME280;40825;52.270;20.984;2023-08-17T12:08:07;100897.30;;;34.32;31.02
54924;BME280;40825;52.270;20.984;2023-08-17T12:10:33;100900.63;;;34.32;30.95
54924;BME280;40825;52.270;20.984;2023-08-17T12:12:59;100898.05;;;34.26;31.22
54924;BME280;40825;52.270;20.984;2023-08-17T12:15:32;100896.83;;;34.22;31.32
54924;BME280;40825;52.270;20.984;2023-08-17T12:17:59;100894.55;;;34.23;31.21
54924;BME280;40825;52.270;20.984;2023-08-17T12:20:25;100894.46;;;34.16;31.37
54924;BME280;40825;52.270;20.984;2023-08-17T12:22:50;100895.59;;;34.10;31.38
54924;BME280;40825;52.270;20.984;2023-08-17T12:25:16;100893.51;;;34.07;31.10
54924;BME280;40825;52.270;20.984;2023-08-17T12:27:47;100892.17;;;33.97;30.49
54924;BME280;40825;52.270;20.984;2023-08-17T12:30:24;100892.66;;;33.89;30.48
54924;BME280;40825;52.270;20.984;2023-08-17T12:32:50;100891.95;;;33.91;30.98
54924;BME280;40825;52.270;20.984;2023-08-17T12:35:15;100889.66;;;33.97;31.06
54924;BME280;40825;52.270;20.984;2023-08-17T12:37:41;100887.34;;;33.97;30.83
54924;BME280;40825;52.270;20.984;2023-08-17T12:40:07;100887.02;;;33.92;30.91
54924;BME280;40825;52.270;20.984;2023-08-17T12:42:33;100886.38;;;33.92;31.12
54924;BME280;40825;52.270;20.984;2023-08-17T12:44:58;100881.40;;;33.95;31.11
54924;BME280;40825;52.270;20.984;2023-08-17T12:47:24;100885.06;;;33.93;31.16
54924;BME280;40825;52.270;20.984;2023-08-17T12:49:49;100880.67;;;33.88;31.44
54924;BME280;40825;52.270;20.984;2023-08-17T12:52:15;100883.50;;;33.85;31.60
54924;BME280;40825;52.270;20.984;2023-08-17T12:54:40;100881.59;;;33.80;31.63
54924;BME280;40825;52.270;20.984;2023-08-17T12:57:06;100878.39;;;33.69;31.57
54924;BME280;40825;52.270;20.984;2023-08-17T12:59:31;100877.50;;;33.59;31.89